.
WxDataArchive / Data Records for 2009-04-17
2009-04-16 April 2009 2009-04-18

Data Records for Friday, 17 April 2009

Time	Temp	Chill	HIndex	Humid	Dewpt	 Wind 	HiWind	WindDir	Rain 	Barom 
-----	----	-----	------	-----	-----	------	------	-------	-----	----- 
00:00	41.8	41.8	41.8	79	35.8	0	0	---	0.00	30.411 
00:05	41.6	41.6	41.6	81	36.2	0	0	---	0.00	30.411 
00:10	41.5	41.5	41.5	82	36.4	0	0	---	0.00	30.411 
00:15	41.3	41.3	41.3	82	36.2	0	0	---	0.00	30.406 
00:20	41.1	41.1	41.1	82	36.0	0	0	---	0.00	30.406 
00:25	40.9	40.9	40.9	83	36.1	0	0	---	0.00	30.406 
00:30	40.6	40.6	40.6	83	35.8	0	0	---	0.00	30.403 
00:35	40.5	40.5	40.5	83	35.8	0	0	---	0.00	30.403 
00:40	40.3	40.3	40.3	83	35.6	0	0	---	0.00	30.403 
00:45	40.1	40.1	40.1	83	35.4	0	0	---	0.00	30.412 
00:50	39.9	39.9	39.9	83	35.2	0	0	---	0.00	30.412 
00:55	39.8	39.8	39.8	83	35.1	0	0	---	0.00	30.412 
01:00	39.6	39.6	39.6	84	35.2	0	0	---	0.00	30.416 
01:05	39.5	39.5	39.5	83	34.8	0	0	---	0.00	30.416 
01:10	39.2	39.2	39.2	83	34.5	0	0	---	0.00	30.416 
01:15	39.1	39.1	39.1	83	34.4	0	0	---	0.00	30.415 
01:20	38.8	38.8	38.8	84	34.4	0	0	---	0.00	30.415 
01:25	38.6	38.6	38.6	84	34.2	0	0	---	0.00	30.415 
01:30	38.5	38.5	38.5	84	34.1	0	0	---	0.00	30.414 
01:35	38.2	38.2	38.2	84	33.8	0	0	---	0.00	30.414 
01:40	37.9	37.9	37.9	84	33.5	0	0	---	0.00	30.414 
01:45	37.8	37.8	37.8	84	33.4	0	0	---	0.00	30.413 
01:50	37.6	37.6	37.6	85	33.5	0	0	---	0.00	30.413 
01:55	37.6	37.6	37.6	86	33.8	0	0	---	0.00	30.413 
02:00	37.6	37.6	37.6	86	33.8	0	0	---	0.00	30.411 
02:05	37.5	37.5	37.5	87	34.0	0	0	---	0.00	30.411 
02:10	37.5	37.5	37.5	87	34.0	0	0	---	0.00	30.411 
02:15	37.5	37.5	37.5	87	34.0	0	0	---	0.00	30.405 
02:20	37.3	37.3	37.3	88	34.1	0	0	---	0.00	30.405 
02:25	37.2	37.2	37.2	88	34.0	0	0	---	0.00	30.405 
02:30	37.0	37.0	37.0	88	33.8	0	0	---	0.00	30.402 
02:35	36.9	36.9	36.9	88	33.7	0	0	---	0.00	30.402 
02:40	36.8	36.8	36.8	88	33.6	0	0	---	0.00	30.402 
02:45	36.8	36.8	36.8	89	33.9	0	0	---	0.00	30.401 
02:50	36.6	36.6	36.6	89	33.7	0	0	---	0.00	30.401 
02:55	36.5	36.5	36.5	89	33.6	0	0	---	0.00	30.401 
03:00	36.5	36.5	36.5	89	33.6	0	0	---	0.00	30.397 
03:05	36.3	36.3	36.3	89	33.4	0	0	---	0.00	30.397 
03:10	36.2	36.2	36.2	89	33.3	0	0	---	0.00	30.397 
03:15	36.0	36.0	36.0	89	33.1	0	0	---	0.00	30.398 
03:20	35.9	35.9	35.9	89	33.0	0	0	---	0.00	30.398 
03:25	35.8	35.8	35.8	89	32.9	0	0	---	0.00	30.398 
03:30	35.6	35.6	35.6	89	32.7	0	0	---	0.00	30.394 
03:35	35.5	35.5	35.5	90	32.9	0	0	---	0.00	30.394 
03:40	35.5	35.5	35.5	90	32.9	0	0	---	0.00	30.394 
03:45	35.3	35.3	35.3	90	32.7	0	0	---	0.00	30.393 
03:50	35.3	35.3	35.3	90	32.7	0	0	---	0.00	30.393 
03:55	35.2	35.2	35.2	90	32.6	0	0	---	0.00	30.393 
04:00	35.2	35.2	35.2	90	32.6	0	0	---	0.00	30.394 
04:05	35.2	35.2	35.2	90	32.6	0	0	---	0.00	30.394 
04:10	35.2	35.2	35.2	90	32.6	0	0	---	0.00	30.394 
04:15	35.0	35.0	35.0	90	32.4	0	0	---	0.00	30.396 
04:20	34.9	34.9	34.9	90	32.3	0	0	---	0.00	30.396 
04:25	34.9	34.9	34.9	90	32.3	0	0	---	0.00	30.396 
04:30	34.9	34.9	34.9	90	32.3	0	0	---	0.00	30.399 
04:35	34.7	34.7	34.7	90	32.1	0	0	---	0.00	30.399 
04:40	34.6	34.6	34.6	90	32.0	0	0	---	0.00	30.399 
04:45	34.4	34.4	34.4	90	31.8	0	0	---	0.00	30.400 
04:50	34.3	34.3	34.3	90	31.7	0	0	---	0.00	30.400 
04:55	34.3	34.3	34.3	90	31.7	0	0	---	0.00	30.400 
05:00	34.1	34.1	34.1	91	31.8	0	0	---	0.00	30.402 
05:05	34.0	34.0	34.0	91	31.7	0	0	---	0.00	30.402 
05:10	33.8	33.8	33.8	91	31.5	0	0	---	0.00	30.402 
05:15	33.7	33.7	33.7	91	31.4	0	0	---	0.00	30.405 
05:20	33.5	33.5	33.5	91	31.2	0	0	---	0.00	30.405 
05:25	33.5	33.5	33.5	91	31.2	0	0	---	0.00	30.405 
05:30	33.5	33.5	33.5	91	31.2	0	0	---	0.00	30.405 
05:35	33.5	33.5	33.5	91	31.2	0	0	---	0.00	30.405 
05:40	33.5	33.5	33.5	92	31.4	0	0	---	0.00	30.405 
05:45	33.4	33.4	33.4	92	31.3	0	0	---	0.00	30.409 
05:50	33.4	33.4	33.4	92	31.3	0	0	---	0.00	30.409 
05:55	33.4	33.4	33.4	92	31.3	0	0	---	0.00	30.409 
06:00	33.5	33.5	33.5	92	31.4	0	0	---	0.00	30.412 
06:05	33.7	33.7	33.7	92	31.6	0	0	---	0.00	30.412 
06:10	33.7	33.7	33.7	92	31.6	0	0	---	0.00	30.412 
06:15	33.5	33.5	33.5	92	31.4	0	0	---	0.00	30.417 
06:20	33.4	33.4	33.4	92	31.3	0	0	---	0.00	30.417 
06:25	33.1	33.1	33.1	92	31.0	0	0	---	0.00	30.417 
06:30	32.9	32.9	32.9	92	30.8	0	0	---	0.00	30.421 
06:35	32.8	32.8	32.8	92	30.7	0	0	---	0.00	30.421 
06:40	32.8	32.8	32.8	92	30.7	0	0	---	0.00	30.421 
06:45	32.7	32.7	32.7	92	30.6	0	0	---	0.00	30.421 
06:50	32.7	32.7	32.7	92	30.6	0	0	---	0.00	30.421 
06:55	32.7	32.7	32.7	92	30.6	0	0	---	0.00	30.421 
07:00	32.7	32.7	32.7	92	30.6	0	0	---	0.00	30.428 
07:05	32.7	32.7	32.7	92	30.6	0	0	---	0.00	30.428 
07:10	32.7	32.7	32.7	92	30.6	0	0	---	0.00	30.428 
07:15	32.5	32.5	32.5	92	30.4	0	0	---	0.00	30.431 
07:20	32.5	32.5	32.5	92	30.4	0	0	---	0.00	30.431 
07:25	32.7	32.7	32.7	93	30.9	0	0	---	0.00	30.431 
07:30	32.8	32.8	32.8	93	31.0	0	0	---	0.00	30.438 
07:35	32.9	32.9	32.9	93	31.1	0	0	---	0.00	30.438 
07:40	33.2	33.2	33.2	93	31.4	0	0	---	0.00	30.438 
07:45	33.5	33.5	33.5	93	31.7	0	0	---	0.00	30.441 
07:50	34.0	34.0	34.0	93	32.2	0	0	---	0.00	30.441 
07:55	34.7	34.7	34.7	94	33.2	0	0	---	0.00	30.441 
08:00	35.6	35.6	35.6	94	34.0	0	0	---	0.00	30.447 
08:05	36.5	36.5	36.5	94	34.9	0	0	---	0.00	30.447 
08:10	37.3	37.3	37.3	94	35.7	0	0	---	0.00	30.447 
08:15	38.2	38.2	38.2	93	36.4	0	0	---	0.00	30.454 
08:20	39.2	39.2	39.2	92	37.1	0	0	---	0.00	30.454 
08:25	40.2	40.2	40.2	91	37.8	0	0	---	0.00	30.454 
08:30	41.3	41.3	41.3	88	38.0	0	0	---	0.00	30.455 
08:35	42.5	42.5	42.5	85	38.3	0	0	---	0.00	30.455 
08:40	43.6	43.6	43.6	82	38.5	0	0	---	0.00	30.455 
08:45	44.8	44.8	44.8	77	38.0	0	0	---	0.00	30.452 
08:50	46.0	46.0	46.0	72	37.5	0	1	112	0.00	30.452 
08:55	47.1	47.1	47.1	70	37.8	0	0	---	0.00	30.452 
09:00	48.0	48.0	48.0	66	37.2	0	0	---	0.00	30.452 
09:05	49.2	49.2	49.2	64	37.5	0	0	---	0.00	30.452 
09:10	50.1	50.1	50.1	59	36.3	0	1	112	0.00	30.452 
09:15	51.4	51.4	51.4	54	35.3	0	0	---	0.00	30.453 
09:20	52.6	52.6	52.6	52	35.5	0	1	112	0.00	30.453 
09:25	53.6	53.6	53.6	46	33.3	0	2	112	0.00	30.453 
09:30	54.4	54.4	54.4	43	32.4	0	1	112	0.00	30.459 
09:35	55.0	55.0	55.0	43	32.9	0	1	45	0.00	30.459 
09:40	55.7	55.7	55.7	41	32.4	0	2	45	0.00	30.459 
09:45	56.3	56.3	56.3	38	31.0	1	3	45	0.00	30.457 
09:50	56.7	56.7	56.7	38	31.4	0	2	45	0.00	30.457 
09:55	57.2	57.2	57.2	37	31.2	1	3	90	0.00	30.457 
10:00	57.3	57.3	57.3	35	29.9	1	2	90	0.00	30.457 
10:05	57.6	57.6	57.6	38	32.2	0	3	90	0.00	30.457 
10:10	58.0	58.0	58.0	36	31.2	0	1	90	0.00	30.457 
10:15	58.6	58.6	58.6	34	30.3	0	2	90	0.00	30.460 
10:20	58.7	58.7	58.7	32	28.9	0	4	225	0.00	30.460 
10:25	59.0	59.0	59.0	33	29.9	1	4	248	0.00	30.460 
10:30	58.6	58.6	58.6	31	28.1	1	3	248	0.00	30.460 
10:35	58.6	58.6	58.6	34	30.3	1	4	248	0.00	30.460 
10:40	58.7	58.7	58.7	34	30.4	1	3	248	0.00	30.460 
10:45	58.7	58.7	58.7	35	31.1	1	4	248	0.00	30.461 
10:50	59.3	59.3	59.3	35	31.7	1	2	248	0.00	30.461 
10:55	60.1	60.1	60.1	30	28.6	1	3	248	0.00	30.461 
11:00	60.9	60.9	60.9	30	29.3	1	3	68	0.00	30.459 
11:05	61.3	61.3	61.3	35	33.4	1	3	112	0.00	30.459 
11:10	61.5	61.5	61.5	32	31.4	0	2	112	0.00	30.459 
11:15	61.3	61.3	61.3	31	30.4	1	3	270	0.00	30.456 
11:20	61.2	61.2	61.2	29	28.7	0	2	270	0.00	30.456 
11:25	61.2	61.2	61.2	30	29.5	0	1	270	0.00	30.456 
11:30	62.0	62.0	62.0	32	31.8	0	1	270	0.00	30.448 
11:35	62.6	62.6	62.6	31	31.5	0	3	270	0.00	30.448 
11:40	63.2	63.2	63.2	28	29.6	1	3	45	0.00	30.448 
11:45	63.4	63.4	63.4	28	29.7	1	4	112	0.00	30.447 
11:50	63.2	63.2	63.2	32	32.9	1	3	112	0.00	30.447 
11:55	63.5	63.5	63.5	27	28.9	1	4	135	0.00	30.447 
12:00	63.9	63.9	63.9	30	31.9	0	2	135	0.00	30.441 
12:05	64.2	64.2	64.2	33	34.5	0	2	135	0.00	30.441 
12:10	64.3	64.3	64.3	31	33.0	1	4	112	0.00	30.441 
12:15	64.0	64.0	64.0	29	31.1	2	4	90	0.00	30.433 
12:20	63.9	63.9	63.9	35	35.7	1	4	90	0.00	30.433 
12:25	64.0	64.0	64.0	31	32.8	1	3	90	0.00	30.433 
12:30	64.2	64.2	64.2	27	29.5	2	5	90	0.00	30.429 
12:35	64.2	64.2	64.2	29	31.3	1	4	90	0.00	30.429 
12:40	64.0	64.0	64.0	28	30.2	1	4	90	0.00	30.429 
12:45	63.7	63.7	63.7	28	30.0	3	5	90	0.00	30.423 
12:50	63.9	63.9	63.9	34	35.0	1	4	90	0.00	30.423 
12:55	64.5	64.5	64.5	27	29.8	1	2	90	0.00	30.423 
13:00	64.8	64.8	64.8	32	34.2	0	3	90	0.00	30.414 
13:05	65.3	65.3	65.3	28	31.4	2	4	90	0.00	30.414 
13:10	65.3	65.3	65.3	28	31.4	1	4	112	0.00	30.414 
13:15	65.5	65.5	65.5	26	29.7	1	3	112	0.00	30.408 
13:20	65.5	65.5	65.5	27	30.6	0	2	112	0.00	30.408 
13:25	65.2	65.2	65.2	26	29.5	1	2	112	0.00	30.408 
13:30	65.5	65.5	65.5	28	31.5	1	3	135	0.00	30.404 
13:35	65.8	65.8	65.8	28	31.8	1	3	225	0.00	30.404 
13:40	66.0	66.0	66.0	29	32.8	0	1	225	0.00	30.404 
13:45	66.1	66.1	66.1	29	32.9	1	2	338	0.00	30.393 
13:50	66.3	66.3	66.3	27	31.3	2	5	112	0.00	30.393 
13:55	65.8	65.8	65.8	27	30.9	1	5	112	0.00	30.393 
14:00	65.8	65.8	65.8	32	35.1	1	3	0	0.00	30.385 
14:05	66.3	66.3	66.3	28	32.2	1	3	270	0.00	30.385 
14:10	66.8	66.8	66.8	29	33.5	0	2	270	0.00	30.385 
14:15	67.1	67.1	67.1	28	32.9	0	2	270	0.00	30.381 
14:20	67.4	67.4	67.4	26	31.3	0	1	270	0.00	30.381 
14:25	67.4	67.4	67.4	29	34.0	1	3	270	0.00	30.381 
14:30	67.8	67.8	67.8	27	32.6	0	1	112	0.00	30.374 
14:35	68.1	68.1	68.1	30	35.5	0	1	112	0.00	30.374 
14:40	68.4	68.4	68.4	30	35.7	0	2	112	0.00	30.374 
14:45	68.8	68.8	68.8	33	38.5	0	1	112	0.00	30.370 
14:50	68.9	68.9	68.9	30	36.2	0	2	112	0.00	30.370 
14:55	68.8	68.8	68.8	28	34.4	1	3	270	0.00	30.370 
15:00	68.6	68.6	68.6	26	32.3	1	3	248	0.00	30.364 
15:05	68.1	68.1	68.1	28	33.8	0	2	292	0.00	30.364 
15:10	68.4	68.4	68.4	28	34.0	1	3	270	0.00	30.364 
15:15	69.1	69.1	69.1	26	32.8	1	3	270	0.00	30.360 
15:20	69.4	69.4	69.4	27	34.0	1	3	270	0.00	30.360 
15:25	69.6	69.6	69.6	28	35.0	1	3	292	0.00	30.360 
15:30	69.4	69.4	69.4	27	34.0	1	3	90	0.00	30.360 
15:35	69.6	69.6	69.6	26	33.2	0	2	90	0.00	30.360 
15:40	69.4	69.4	69.4	26	33.0	1	3	90	0.00	30.360 
15:45	69.4	69.4	69.4	27	34.0	1	3	90	0.00	30.353 
15:50	69.3	69.3	69.3	26	32.9	0	3	135	0.00	30.353 
15:55	69.8	69.8	69.8	29	36.1	0	3	225	0.00	30.353 
16:00	69.8	69.8	69.8	27	34.3	1	4	338	0.00	30.349 
16:05	69.6	69.6	69.6	27	34.1	1	3	90	0.00	30.349 
16:10	69.4	69.4	69.4	27	34.0	1	4	90	0.00	30.349 
16:15	69.3	69.3	69.3	28	34.8	0	2	90	0.00	30.339 
16:20	69.3	69.3	69.3	25	32.0	1	3	90	0.00	30.339 
16:25	69.4	69.4	69.4	26	33.0	1	5	90	0.00	30.339 
16:30	69.3	69.3	69.3	25	32.0	2	4	112	0.00	30.337 
16:35	68.8	68.8	68.8	26	32.5	2	4	112	0.00	30.337 
16:40	68.6	68.6	68.6	27	33.3	1	3	112	0.00	30.337 
16:45	68.9	68.9	68.9	27	33.5	1	3	270	0.00	30.325 
16:50	68.8	68.8	68.8	25	31.5	2	7	135	0.00	30.325 
16:55	68.3	68.3	68.3	26	32.1	3	5	112	0.00	30.325 
17:00	68.1	68.1	68.1	25	30.9	2	4	90	0.00	30.320 
17:05	67.9	67.9	67.9	26	31.7	1	3	90	0.00	30.320 
17:10	68.3	68.3	68.3	28	33.9	1	3	90	0.00	30.320 
17:15	68.4	68.4	68.4	25	31.2	1	3	90	0.00	30.314 
17:20	68.6	68.6	68.6	25	31.4	1	3	90	0.00	30.314 
17:25	68.8	68.8	68.8	24	30.5	1	3	90	0.00	30.314 
17:30	68.6	68.6	68.6	25	31.4	2	4	112	0.00	30.306 
17:35	68.8	68.8	68.8	25	31.5	0	3	112	0.00	30.306 
17:40	68.8	68.8	68.8	23	29.5	1	2	112	0.00	30.306 
17:45	69.1	69.1	69.1	25	31.8	1	3	112	0.00	30.300 
17:50	69.3	69.3	69.3	27	33.9	1	3	112	0.00	30.300 
17:55	69.3	69.3	69.3	24	31.0	0	3	315	0.00	30.300 
18:00	69.4	69.4	69.4	24	31.0	0	3	315	0.00	30.291 
18:05	69.3	69.3	69.3	25	32.0	1	3	90	0.00	30.291 
18:10	69.3	69.3	69.3	25	32.0	0	3	248	0.00	30.291 
18:15	69.1	69.1	69.1	26	32.8	0	2	202	0.00	30.284 
18:20	68.8	68.8	68.8	23	29.5	0	2	158	0.00	30.284 
18:25	68.4	68.4	68.4	24	30.2	1	4	90	0.00	30.284 
18:30	68.1	68.1	68.1	25	30.9	1	4	135	0.00	30.286 
18:35	67.9	67.9	67.9	26	31.7	1	4	112	0.00	30.286 
18:40	67.6	67.6	67.6	24	29.5	1	3	112	0.00	30.286 
18:45	67.4	67.4	67.4	24	29.4	0	2	112	0.00	30.284 
18:50	67.3	67.3	67.3	25	30.3	0	2	112	0.00	30.284 
18:55	67.1	67.1	67.1	26	31.1	0	2	112	0.00	30.284 
19:00	67.1	67.1	67.1	26	31.1	1	2	135	0.00	30.279 
19:05	66.9	66.9	66.9	27	31.8	1	2	158	0.00	30.279 
19:10	66.8	66.8	66.8	27	31.7	0	2	158	0.00	30.279 
19:15	66.4	66.4	66.4	25	29.5	0	2	158	0.00	30.274 
19:20	66.4	66.4	66.4	25	29.5	0	2	158	0.00	30.274 
19:25	66.1	66.1	66.1	26	30.2	0	2	158	0.00	30.274 
19:30	66.0	66.0	66.0	26	30.1	0	1	158	0.00	30.273 
19:35	65.8	65.8	65.8	28	31.8	0	1	158	0.00	30.273 
19:40	65.6	65.6	65.6	27	30.7	0	1	158	0.00	30.273 
19:45	65.3	65.3	65.3	27	30.5	0	0	---	0.00	30.270 
19:50	64.8	64.8	64.8	26	29.1	0	1	158	0.00	30.270 
19:55	64.5	64.5	64.5	27	29.8	0	1	158	0.00	30.270 
20:00	64.0	64.0	64.0	27	29.4	0	0	---	0.00	30.268 
20:05	63.7	63.7	63.7	29	30.8	0	0	---	0.00	30.268 
20:10	63.1	63.1	63.1	29	30.3	0	0	---	0.00	30.268 
20:15	62.4	62.4	62.4	30	30.6	0	0	---	0.00	30.257 
20:20	61.8	61.8	61.8	31	30.8	0	0	---	0.00	30.257 
20:25	61.0	61.0	61.0	35	33.2	0	0	---	0.00	30.257 
20:30	60.4	60.4	60.4	35	32.6	0	0	---	0.00	30.262 
20:35	59.6	59.6	59.6	36	32.6	0	0	---	0.00	30.262 
20:40	58.9	58.9	58.9	37	32.7	0	0	---	0.00	30.262 
20:45	58.3	58.3	58.3	38	32.8	0	0	---	0.00	30.268 
20:50	57.6	57.6	57.6	39	32.8	0	0	---	0.00	30.268 
20:55	57.0	57.0	57.0	39	32.3	0	0	---	0.00	30.268 
21:00	56.5	56.5	56.5	41	33.1	0	0	---	0.00	30.272 
21:05	56.0	56.0	56.0	42	33.2	0	0	---	0.00	30.272 
21:10	55.6	55.6	55.6	43	33.5	0	0	---	0.00	30.272 
21:15	55.1	55.1	55.1	44	33.6	0	0	---	0.00	30.272 
21:20	54.7	54.7	54.7	45	33.8	0	0	---	0.00	30.272 
21:25	54.2	54.2	54.2	46	33.9	0	0	---	0.00	30.272 
21:30	53.8	53.8	53.8	47	34.0	0	0	---	0.00	30.275 
21:35	53.3	53.3	53.3	50	35.1	0	0	---	0.00	30.275 
21:40	53.1	53.1	53.1	50	35.0	0	0	---	0.00	30.275 
21:45	52.8	52.8	52.8	51	35.2	0	0	---	0.00	30.275 
21:50	52.3	52.3	52.3	51	34.7	0	0	---	0.00	30.275 
21:55	51.9	51.9	51.9	51	34.3	0	0	---	0.00	30.275 
22:00	51.6	51.6	51.6	54	35.5	0	0	---	0.00	30.276 
22:05	51.1	51.1	51.1	54	35.0	0	0	---	0.00	30.276 
22:10	50.8	50.8	50.8	54	34.8	0	0	---	0.00	30.276 
22:15	50.4	50.4	50.4	55	34.8	0	0	---	0.00	30.273 
22:20	50.1	50.1	50.1	57	35.5	0	0	---	0.00	30.273 
22:25	49.8	49.8	49.8	57	35.2	0	0	---	0.00	30.273 
22:30	49.4	49.4	49.4	58	35.2	0	0	---	0.00	30.269 
22:35	48.9	48.9	48.9	58	34.8	0	0	---	0.00	30.269 
22:40	48.5	48.5	48.5	59	34.8	0	0	---	0.00	30.269 
22:45	48.0	48.0	48.0	60	34.8	0	0	---	0.00	30.268 
22:50	47.7	47.7	47.7	61	34.9	0	0	---	0.00	30.268 
22:55	47.4	47.4	47.4	62	35.0	0	0	---	0.00	30.268 
23:00	47.3	47.3	47.3	62	34.9	0	0	---	0.00	30.267 
23:05	47.0	47.0	47.0	63	35.1	0	0	---	0.00	30.267 
23:10	46.8	46.8	46.8	63	34.9	0	0	---	0.00	30.267 
23:15	46.5	46.5	46.5	63	34.6	0	0	---	0.00	30.263 
23:20	46.5	46.5	46.5	65	35.4	0	0	---	0.00	30.263 
23:25	46.5	46.5	46.5	66	35.8	0	0	---	0.00	30.263 
23:30	46.5	46.5	46.5	66	35.8	0	0	---	0.00	30.263 
23:35	46.5	46.5	46.5	67	36.1	0	0	---	0.00	30.263 
23:40	46.4	46.4	46.4	67	36.0	0	0	---	0.00	30.263 
23:45	46.4	46.4	46.4	69	36.8	0	0	---	0.00	30.260 
23:50	46.1	46.1	46.1	68	36.1	0	0	---	0.00	30.260 
23:55	45.8	45.8	45.8	68	35.8	0	0	---	0.00	30.260 

CoCoRaHS
IN-AL-39
A2 Web Hosting
Creative Commons License
GoDaddy
search engine by freefind advanced

loaded 2018-11-15 16:01:27 • last modified 2010-11-18 10:43:29
Privacy PolicyDisclaimer
• wx.awcolley.com is powered by PmWiki v.2002016 •
• all content (unless otherwise noted) © 2018 A W Colley